createdAt,value
2022-12-31T00:00:23.948Z,100.00
2022-12-31T00:02:51.825Z,100.00
2022-12-31T00:05:20.982Z,100.00
2022-12-31T00:07:48.719Z,100.00
2022-12-31T00:10:16.693Z,100.00
2022-12-31T00:12:44.398Z,100.00
2022-12-31T00:15:12.138Z,100.00
2022-12-31T00:17:40.499Z,100.00
2022-12-31T00:20:09.180Z,100.00
2022-12-31T00:22:38.440Z,100.00
2022-12-31T00:25:07.385Z,100.00
2022-12-31T00:27:35.136Z,100.00
2022-12-31T00:30:04.981Z,100.00
2022-12-31T00:32:32.942Z,100.00
2022-12-31T00:35:00.604Z,100.00
2022-12-31T00:37:28.347Z,100.00
2022-12-31T00:39:57.495Z,100.00
2022-12-31T00:42:25.509Z,100.00
2022-12-31T00:44:53.169Z,100.00
2022-12-31T00:47:20.903Z,100.00
2022-12-31T00:49:48.799Z,100.00
2022-12-31T00:52:18.263Z,100.00
2022-12-31T00:54:45.960Z,100.00
2022-12-31T00:57:15.306Z,100.00
2022-12-31T00:59:43.027Z,100.00
2022-12-31T01:02:10.960Z,100.00
2022-12-31T01:04:38.857Z,100.00
2022-12-31T01:07:06.537Z,100.00
2022-12-31T01:09:34.309Z,100.00
2022-12-31T01:12:02.076Z,100.00
2022-12-31T01:14:32.642Z,100.00
2022-12-31T01:17:00.368Z,100.00
2022-12-31T01:19:30.423Z,100.00
2022-12-31T01:21:58.644Z,100.00
2022-12-31T01:24:26.528Z,100.00
2022-12-31T01:26:57.581Z,100.00
2022-12-31T01:29:25.719Z,100.00
2022-12-31T01:31:54.878Z,100.00
2022-12-31T01:34:22.660Z,100.00
2022-12-31T01:36:50.389Z,100.00
2022-12-31T01:39:18.223Z,100.00
2022-12-31T01:41:48.032Z,100.00
2022-12-31T01:44:53.924Z,100.00
2022-12-31T01:47:34.050Z,100.00
2022-12-31T01:50:08.477Z,100.00
2022-12-31T01:52:39.487Z,100.00
2022-12-31T01:55:13.328Z,100.00
2022-12-31T01:57:42.101Z,100.00
2022-12-31T02:00:10.997Z,100.00
2022-12-31T02:02:40.256Z,100.00
2022-12-31T02:05:15.039Z,100.00
2022-12-31T02:07:43.300Z,100.00
2022-12-31T02:10:11.170Z,100.00
2022-12-31T02:12:39.029Z,100.00
2022-12-31T02:15:08.014Z,100.00
2022-12-31T02:17:47.264Z,100.00
2022-12-31T02:20:47.483Z,100.00
2022-12-31T02:23:33.717Z,100.00
2022-12-31T02:26:28.824Z,100.00
2022-12-31T02:29:29.019Z,100.00
2022-12-31T02:32:01.375Z,100.00
2022-12-31T02:34:34.589Z,100.00
2022-12-31T02:37:07.367Z,100.00
2022-12-31T02:39:35.702Z,100.00
2022-12-31T02:42:04.350Z,100.00
2022-12-31T02:44:35.296Z,100.00
2022-12-31T02:47:18.228Z,100.00
2022-12-31T02:49:59.858Z,100.00
2022-12-31T02:52:38.938Z,100.00
2022-12-31T02:55:15.500Z,100.00
2022-12-31T02:57:52.621Z,100.00
2022-12-31T03:00:38.914Z,100.00
2022-12-31T03:03:10.057Z,100.00
2022-12-31T03:05:41.789Z,100.00
2022-12-31T03:08:10.053Z,100.00
2022-12-31T03:10:38.144Z,100.00
2022-12-31T03:13:04.890Z,100.00
2022-12-31T03:15:34.603Z,100.00
2022-12-31T03:18:04.769Z,100.00
2022-12-31T03:20:53.819Z,100.00
2022-12-31T03:23:24.816Z,100.00
2022-12-31T03:25:53.251Z,100.00
2022-12-31T03:28:23.722Z,100.00
2022-12-31T03:30:53.996Z,100.00
2022-12-31T03:33:22.640Z,100.00
2022-12-31T03:35:51.923Z,100.00
2022-12-31T03:38:20.405Z,100.00
2022-12-31T03:40:50.545Z,100.00
2022-12-31T03:43:19.302Z,100.00
2022-12-31T03:45:50.155Z,100.00
2022-12-31T03:48:18.427Z,100.00
2022-12-31T03:50:46.183Z,100.00
2022-12-31T03:53:15.585Z,100.00
2022-12-31T03:55:43.416Z,100.00
2022-12-31T03:58:11.130Z,100.00
2022-12-31T04:00:38.860Z,100.00
2022-12-31T04:03:06.719Z,100.00
2022-12-31T04:05:34.723Z,100.00
2022-12-31T04:08:03.020Z,100.00
2022-12-31T04:10:32.217Z,100.00
2022-12-31T04:13:02.438Z,100.00
2022-12-31T04:15:30.331Z,100.00
2022-12-31T04:17:58.169Z,100.00
2022-12-31T04:20:25.914Z,100.00
2022-12-31T04:22:53.648Z,100.00
2022-12-31T04:25:21.378Z,100.00
2022-12-31T04:27:50.439Z,100.00
2022-12-31T04:30:18.149Z,100.00
2022-12-31T04:32:45.891Z,100.00
2022-12-31T04:35:13.645Z,100.00
2022-12-31T04:37:41.366Z,100.00
2022-12-31T04:40:10.227Z,100.00
2022-12-31T04:42:38.553Z,100.00
2022-12-31T04:45:09.013Z,100.00
2022-12-31T04:47:36.761Z,100.00
2022-12-31T04:50:05.021Z,100.00
2022-12-31T04:52:35.783Z,100.00
2022-12-31T04:55:08.851Z,100.00
2022-12-31T04:57:36.519Z,100.00
2022-12-31T05:00:04.994Z,100.00
2022-12-31T05:02:34.294Z,100.00
2022-12-31T05:05:02.068Z,100.00
2022-12-31T05:07:29.754Z,100.00
2022-12-31T05:09:57.499Z,100.00
2022-12-31T05:12:25.222Z,100.00
2022-12-31T05:14:52.952Z,100.00
2022-12-31T05:17:22.939Z,100.00
2022-12-31T05:19:52.039Z,100.00
2022-12-31T05:22:31.999Z,100.00
2022-12-31T05:25:00.549Z,100.00
2022-12-31T05:27:31.133Z,100.00
2022-12-31T05:29:59.120Z,100.00
2022-12-31T05:32:26.869Z,100.00
2022-12-31T05:34:55.969Z,100.00
2022-12-31T05:37:23.698Z,100.00
2022-12-31T05:39:51.508Z,100.00
2022-12-31T05:42:19.261Z,100.00
2022-12-31T05:44:47.036Z,100.00
2022-12-31T05:47:15.538Z,100.00
2022-12-31T05:49:43.315Z,100.00
2022-12-31T05:52:12.424Z,100.00
2022-12-31T05:54:40.199Z,100.00
2022-12-31T05:57:08.383Z,100.00
2022-12-31T05:59:36.107Z,100.00
2022-12-31T06:02:03.881Z,100.00
2022-12-31T06:04:31.606Z,100.00
2022-12-31T06:06:59.305Z,100.00
2022-12-31T06:09:28.479Z,100.00
2022-12-31T06:12:42.883Z,100.00
2022-12-31T06:15:11.276Z,100.00
2022-12-31T06:17:39.409Z,100.00
2022-12-31T06:20:12.843Z,100.00
2022-12-31T06:22:40.912Z,100.00
2022-12-31T06:25:11.043Z,100.00
2022-12-31T06:27:38.838Z,100.00
2022-12-31T06:30:07.944Z,100.00
2022-12-31T06:32:35.965Z,100.00
2022-12-31T06:35:03.775Z,100.00
2022-12-31T06:37:31.554Z,100.00
2022-12-31T06:39:59.655Z,100.00
2022-12-31T06:42:30.801Z,100.00
2022-12-31T06:44:58.955Z,100.00
2022-12-31T06:47:27.161Z,100.00
2022-12-31T06:49:54.919Z,100.00
2022-12-31T06:52:22.915Z,100.00
2022-12-31T06:54:51.166Z,100.00
2022-12-31T06:57:19.543Z,100.00
2022-12-31T06:59:49.452Z,100.00
2022-12-31T07:02:32.019Z,100.00
2022-12-31T07:05:28.114Z,100.00
2022-12-31T07:08:06.958Z,100.00
2022-12-31T07:10:43.919Z,100.00
2022-12-31T07:13:26.450Z,100.00
2022-12-31T07:16:19.940Z,100.00
2022-12-31T07:18:51.710Z,100.00
2022-12-31T07:21:31.747Z,100.00
2022-12-31T07:24:00.119Z,100.00
2022-12-31T07:26:46.259Z,100.00
2022-12-31T07:29:25.317Z,100.00
2022-12-31T07:32:05.944Z,100.00
2022-12-31T07:34:43.088Z,100.00
2022-12-31T07:37:18.365Z,100.00
2022-12-31T07:39:54.470Z,100.00
2022-12-31T07:42:28.200Z,100.00
2022-12-31T07:45:02.208Z,100.00
2022-12-31T07:47:31.869Z,100.00
2022-12-31T07:50:00.140Z,100.00
2022-12-31T07:52:28.566Z,100.00
2022-12-31T07:54:56.278Z,100.00
2022-12-31T07:57:28.271Z,100.00
2022-12-31T08:00:04.524Z,100.00
2022-12-31T08:02:55.017Z,100.00
2022-12-31T08:05:30.859Z,100.00
2022-12-31T08:08:07.063Z,100.00
2022-12-31T08:10:40.929Z,100.00
2022-12-31T08:13:12.097Z,100.00
2022-12-31T08:15:41.037Z,100.00
2022-12-31T08:18:11.622Z,100.00
2022-12-31T08:20:49.840Z,100.00
2022-12-31T08:23:26.851Z,100.00
2022-12-31T08:26:07.556Z,100.00
2022-12-31T08:28:51.648Z,100.00
2022-12-31T08:31:22.657Z,100.00
2022-12-31T08:34:02.111Z,100.00
2022-12-31T08:36:42.573Z,100.00
2022-12-31T08:39:18.316Z,100.00
2022-12-31T08:41:49.089Z,100.00
2022-12-31T08:44:29.335Z,100.00
2022-12-31T08:47:03.697Z,100.00
2022-12-31T08:49:35.328Z,100.00
2022-12-31T08:52:04.996Z,100.00
2022-12-31T08:54:33.116Z,100.00
2022-12-31T08:57:10.580Z,100.00
2022-12-31T08:59:48.279Z,100.00
2022-12-31T09:02:46.181Z,100.00
2022-12-31T09:05:23.143Z,100.00
2022-12-31T09:08:01.735Z,100.00
2022-12-31T09:10:33.264Z,100.00
2022-12-31T09:13:12.376Z,100.00
2022-12-31T09:15:44.854Z,100.00
2022-12-31T09:18:14.446Z,100.00
2022-12-31T09:20:44.728Z,100.00
2022-12-31T09:23:13.865Z,100.00
2022-12-31T09:25:52.654Z,100.00
2022-12-31T09:28:32.907Z,100.00
2022-12-31T09:31:12.543Z,100.00
2022-12-31T09:33:48.205Z,100.00
2022-12-31T09:36:23.221Z,100.00
2022-12-31T09:38:56.302Z,100.00
2022-12-31T09:41:49.521Z,100.00
2022-12-31T09:44:54.130Z,100.00
2022-12-31T09:48:06.638Z,100.00
2022-12-31T09:50:47.494Z,100.00
2022-12-31T09:53:36.606Z,100.00
2022-12-31T09:56:14.986Z,100.00
2022-12-31T09:58:49.776Z,100.00
2022-12-31T10:01:39.123Z,100.00
2022-12-31T10:04:40.681Z,100.00
2022-12-31T10:07:25.918Z,100.00
2022-12-31T10:10:07.612Z,100.00
2022-12-31T10:13:02.616Z,100.00
2022-12-31T10:15:44.019Z,100.00
2022-12-31T10:18:25.463Z,100.00
2022-12-31T10:21:06.609Z,100.00
2022-12-31T10:23:56.328Z,100.00
2022-12-31T10:26:47.249Z,100.00
2022-12-31T10:29:32.509Z,100.00
2022-12-31T10:32:16.260Z,100.00
2022-12-31T10:34:54.616Z,100.00
2022-12-31T10:37:30.007Z,100.00
2022-12-31T10:40:11.906Z,100.00
2022-12-31T10:43:18.112Z,100.00
2022-12-31T10:46:23.080Z,100.00
2022-12-31T10:49:25.952Z,100.00
2022-12-31T10:52:42.124Z,100.00
2022-12-31T10:55:47.860Z,100.00
2022-12-31T10:59:09.572Z,100.00
2022-12-31T11:01:49.728Z,100.00
2022-12-31T11:04:56.146Z,99.33
2022-12-31T11:07:56.788Z,100.00
2022-12-31T11:10:56.150Z,99.83
2022-12-31T11:14:03.205Z,100.00
2022-12-31T11:16:54.315Z,100.00
2022-12-31T11:19:29.810Z,100.00
2022-12-31T11:22:20.112Z,100.00
2022-12-31T11:25:06.873Z,100.00
2022-12-31T11:28:10.061Z,100.00
2022-12-31T11:30:47.622Z,100.00
2022-12-31T11:33:34.162Z,100.00
2022-12-31T11:36:14.783Z,100.00
2022-12-31T11:38:51.501Z,100.00
2022-12-31T11:41:29.203Z,100.00
2022-12-31T11:44:03.987Z,100.00
2022-12-31T11:46:48.503Z,99.17
2022-12-31T11:49:31.005Z,95.34
2022-12-31T11:52:21.338Z,93.34
2022-12-31T11:55:24.493Z,88.71
2022-12-31T11:57:53.393Z,83.16
2022-12-31T12:00:23.822Z,80.03
2022-12-31T12:02:54.825Z,75.65
2022-12-31T12:05:25.768Z,71.51
2022-12-31T12:07:54.795Z,67.31
2022-12-31T12:10:31.951Z,64.63
2022-12-31T12:13:12.507Z,65.11
2022-12-31T12:15:43.491Z,68.49
2022-12-31T12:18:24.742Z,70.38
2022-12-31T12:20:55.897Z,71.09
2022-12-31T12:23:25.598Z,73.14
2022-12-31T12:25:54.143Z,72.43
2022-12-31T12:28:23.799Z,71.99
2022-12-31T12:30:57.362Z,73.12
2022-12-31T12:33:25.458Z,75.37
2022-12-31T12:35:54.514Z,74.05
2022-12-31T12:38:24.314Z,74.37
2022-12-31T12:40:58.226Z,75.10
2022-12-31T12:43:28.290Z,74.93
2022-12-31T12:46:00.496Z,76.98
2022-12-31T12:48:35.600Z,75.90
2022-12-31T12:51:15.037Z,74.86
2022-12-31T12:53:50.094Z,75.18
2022-12-31T12:56:24.849Z,73.90
2022-12-31T12:59:08.479Z,75.76
2022-12-31T13:01:44.088Z,80.27
2022-12-31T13:04:43.779Z,84.18
2022-12-31T13:07:25.656Z,81.66
2022-12-31T13:10:09.956Z,81.53
2022-12-31T13:13:22.852Z,82.42
2022-12-31T13:15:40.455Z,82.24
2022-12-31T13:18:16.716Z,83.18
2022-12-31T13:20:51.121Z,85.05
2022-12-31T13:23:27.567Z,86.41
2022-12-31T13:26:05.062Z,85.82
2022-12-31T13:28:34.511Z,86.15
2022-12-31T13:31:07.365Z,88.73
2022-12-31T13:33:40.126Z,89.12
2022-12-31T13:36:11.683Z,89.09
2022-12-31T13:38:44.442Z,90.37
2022-12-31T13:41:15.892Z,92.14
2022-12-31T13:43:50.971Z,92.11
2022-12-31T13:46:25.282Z,90.78
2022-12-31T13:48:57.138Z,92.01
2022-12-31T13:51:39.162Z,92.70
2022-12-31T13:54:19.629Z,93.61
2022-12-31T13:56:51.504Z,92.78
2022-12-31T13:59:23.622Z,93.08
2022-12-31T14:01:55.461Z,93.18
2022-12-31T14:04:28.878Z,93.32
2022-12-31T14:07:01.830Z,93.00
2022-12-31T14:09:34.270Z,93.76
2022-12-31T14:12:18.624Z,93.65
2022-12-31T14:14:52.371Z,94.26
2022-12-31T14:17:27.610Z,93.56
2022-12-31T14:20:05.350Z,94.63
2022-12-31T14:22:41.056Z,95.75
2022-12-31T14:25:19.977Z,97.49
2022-12-31T14:27:49.578Z,100.00
2022-12-31T14:30:20.612Z,100.00
2022-12-31T14:33:07.732Z,100.00
2022-12-31T14:35:53.207Z,100.00
2022-12-31T14:38:34.786Z,100.00
2022-12-31T14:41:20.245Z,100.00
2022-12-31T14:44:04.358Z,100.00
2022-12-31T14:46:39.991Z,100.00
2022-12-31T14:49:34.470Z,100.00
2022-12-31T14:52:09.749Z,100.00
2022-12-31T14:54:38.820Z,100.00
2022-12-31T14:57:24.521Z,100.00
2022-12-31T14:59:55.111Z,100.00
2022-12-31T15:02:31.273Z,100.00
2022-12-31T15:05:17.149Z,100.00
2022-12-31T15:07:54.401Z,100.00
2022-12-31T15:10:27.575Z,100.00
2022-12-31T15:13:06.178Z,100.00
2022-12-31T15:16:06.983Z,100.00
2022-12-31T15:18:49.134Z,100.00
2022-12-31T15:21:35.276Z,100.00
2022-12-31T15:24:13.326Z,100.00
2022-12-31T15:26:49.369Z,100.00
2022-12-31T15:29:28.307Z,100.00
2022-12-31T15:31:57.607Z,100.00
2022-12-31T15:34:27.675Z,100.00
2022-12-31T15:36:57.980Z,100.00
2022-12-31T15:39:40.200Z,100.00
2022-12-31T15:42:37.706Z,100.00
2022-12-31T15:45:14.511Z,100.00
2022-12-31T15:47:46.852Z,100.00
2022-12-31T15:50:18.203Z,100.00
2022-12-31T15:52:48.727Z,100.00
2022-12-31T15:55:26.697Z,100.00
2022-12-31T15:58:00.157Z,100.00
2022-12-31T16:00:44.450Z,100.00
2022-12-31T16:03:22.337Z,100.00
2022-12-31T16:05:50.482Z,100.00
2022-12-31T16:08:22.530Z,100.00
2022-12-31T16:10:50.485Z,100.00
2022-12-31T16:13:24.561Z,100.00
2022-12-31T16:15:58.861Z,100.00
2022-12-31T16:18:26.689Z,100.00
2022-12-31T16:20:54.411Z,100.00
2022-12-31T16:23:24.363Z,100.00
2022-12-31T16:25:54.086Z,100.00
2022-12-31T16:28:24.544Z,100.00
2022-12-31T16:31:01.393Z,100.00
2022-12-31T16:33:29.424Z,100.00
2022-12-31T16:35:59.100Z,100.00
2022-12-31T16:38:33.649Z,100.00
2022-12-31T16:41:12.506Z,100.00
2022-12-31T16:43:41.667Z,100.00
2022-12-31T16:46:16.857Z,100.00
2022-12-31T16:48:48.354Z,100.00
2022-12-31T16:51:20.539Z,100.00
2022-12-31T16:53:49.440Z,100.00
2022-12-31T16:56:25.180Z,100.00
2022-12-31T16:59:01.267Z,100.00
2022-12-31T17:01:33.745Z,100.00
2022-12-31T17:04:05.738Z,100.00
2022-12-31T17:06:33.865Z,100.00
2022-12-31T17:09:14.914Z,100.00
2022-12-31T17:11:50.381Z,100.00
2022-12-31T17:14:19.840Z,100.00
2022-12-31T17:17:03.640Z,100.00
2022-12-31T17:19:43.420Z,100.00
2022-12-31T17:22:17.251Z,100.00
2022-12-31T17:24:45.313Z,100.00
2022-12-31T17:27:13.121Z,100.00
2022-12-31T17:29:40.784Z,100.00
2022-12-31T17:32:30.123Z,100.00
2022-12-31T17:34:57.758Z,100.00
2022-12-31T17:37:28.535Z,100.00
2022-12-31T17:40:17.081Z,100.00
2022-12-31T17:42:47.441Z,100.00
2022-12-31T17:45:20.882Z,100.00
2022-12-31T17:47:54.036Z,100.00
2022-12-31T17:50:24.791Z,100.00
2022-12-31T17:52:56.808Z,100.00
2022-12-31T17:55:24.637Z,100.00
2022-12-31T17:57:55.193Z,100.00
2022-12-31T18:00:25.139Z,100.00
2022-12-31T18:02:54.463Z,100.00
2022-12-31T18:05:23.984Z,100.00
2022-12-31T18:07:51.779Z,100.00
2022-12-31T18:10:21.233Z,100.00
2022-12-31T18:12:50.385Z,100.00
2022-12-31T18:15:20.033Z,100.00
2022-12-31T18:17:47.753Z,100.00
2022-12-31T18:20:17.114Z,100.00
2022-12-31T18:22:46.003Z,100.00
2022-12-31T18:25:17.710Z,100.00
2022-12-31T18:27:45.423Z,100.00
2022-12-31T18:30:16.414Z,100.00
2022-12-31T18:32:45.155Z,100.00
2022-12-31T18:35:40.765Z,100.00
2022-12-31T18:38:07.173Z,100.00
2022-12-31T18:40:34.935Z,100.00
2022-12-31T18:43:05.101Z,100.00
2022-12-31T18:45:33.078Z,100.00
2022-12-31T18:48:00.835Z,100.00
2022-12-31T18:50:29.882Z,100.00
2022-12-31T18:52:57.545Z,100.00
2022-12-31T18:55:29.229Z,100.00
2022-12-31T18:57:56.817Z,100.00
2022-12-31T19:00:24.809Z,100.00
2022-12-31T19:02:52.469Z,100.00
2022-12-31T19:05:25.376Z,100.00
2022-12-31T19:07:54.898Z,100.00
2022-12-31T19:10:23.172Z,100.00
2022-12-31T19:12:51.414Z,100.00
2022-12-31T19:15:29.625Z,100.00
2022-12-31T19:17:57.393Z,100.00
2022-12-31T19:20:25.219Z,100.00
2022-12-31T19:22:54.236Z,100.00
2022-12-31T19:25:24.345Z,100.00
2022-12-31T19:27:52.489Z,100.00
2022-12-31T19:30:23.734Z,100.00
2022-12-31T19:32:51.811Z,100.00
2022-12-31T19:35:20.556Z,100.00
2022-12-31T19:37:50.771Z,100.00
2022-12-31T19:40:22.561Z,100.00
2022-12-31T19:42:51.116Z,100.00
2022-12-31T19:45:20.194Z,100.00
2022-12-31T19:47:48.068Z,100.00
2022-12-31T19:50:18.034Z,100.00
2022-12-31T19:52:47.086Z,100.00
2022-12-31T19:55:16.846Z,100.00
2022-12-31T19:57:46.719Z,100.00
2022-12-31T20:00:17.824Z,100.00
2022-12-31T20:02:48.152Z,100.00
2022-12-31T20:05:19.312Z,100.00
2022-12-31T20:07:47.212Z,100.00
2022-12-31T20:10:15.651Z,100.00
2022-12-31T20:12:44.712Z,100.00
2022-12-31T20:15:13.995Z,100.00
2022-12-31T20:17:41.604Z,100.00
2022-12-31T20:20:09.887Z,100.00
2022-12-31T20:22:37.509Z,100.00
2022-12-31T20:25:05.937Z,100.00
2022-12-31T20:27:33.879Z,100.00
2022-12-31T20:30:01.681Z,100.00
2022-12-31T20:32:30.694Z,100.00
2022-12-31T20:34:58.392Z,100.00
2022-12-31T20:37:25.997Z,100.00
2022-12-31T20:39:53.688Z,100.00
2022-12-31T20:42:21.400Z,100.00
2022-12-31T20:44:49.067Z,100.00
2022-12-31T20:47:16.812Z,100.00
2022-12-31T20:50:10.378Z,100.00
2022-12-31T20:52:34.076Z,100.00
2022-12-31T20:55:01.747Z,100.00
2022-12-31T20:57:33.595Z,100.00
2022-12-31T21:00:01.884Z,100.00
2022-12-31T21:02:40.837Z,100.00
2022-12-31T21:05:11.543Z,100.00
2022-12-31T21:07:39.415Z,100.00
2022-12-31T21:10:07.780Z,100.00
2022-12-31T21:12:44.454Z,100.00
2022-12-31T21:15:13.346Z,100.00
2022-12-31T21:17:41.016Z,100.00
2022-12-31T21:20:11.425Z,100.00
2022-12-31T21:22:39.486Z,100.00
2022-12-31T21:25:07.774Z,100.00
2022-12-31T21:27:37.019Z,100.00
2022-12-31T21:30:20.779Z,100.00
2022-12-31T21:32:48.849Z,100.00
2022-12-31T21:38:07.406Z,100.00
2022-12-31T21:40:35.098Z,100.00
2022-12-31T21:43:02.778Z,100.00
2022-12-31T21:45:30.454Z,100.00
2022-12-31T21:48:17.476Z,100.00
2022-12-31T21:50:48.472Z,100.00
2022-12-31T21:53:20.332Z,100.00
2022-12-31T21:56:11.500Z,100.00
2022-12-31T21:58:40.935Z,100.00
2022-12-31T22:01:31.623Z,100.00
2022-12-31T22:03:59.377Z,100.00
2022-12-31T22:06:28.538Z,100.00
2022-12-31T22:08:57.849Z,100.00
2022-12-31T22:11:27.960Z,100.00
2022-12-31T22:13:56.578Z,100.00
2022-12-31T22:16:24.698Z,100.00
2022-12-31T22:18:52.352Z,100.00
2022-12-31T22:21:22.043Z,100.00
2022-12-31T22:23:52.769Z,100.00
2022-12-31T22:26:22.475Z,100.00
2022-12-31T22:28:50.699Z,100.00
2022-12-31T22:31:21.384Z,100.00
2022-12-31T22:33:49.605Z,100.00
2022-12-31T22:36:20.265Z,100.00
2022-12-31T22:38:48.907Z,100.00
2022-12-31T22:41:20.317Z,100.00
2022-12-31T22:43:49.957Z,100.00
2022-12-31T22:46:19.693Z,100.00
2022-12-31T22:48:47.888Z,100.00
2022-12-31T22:51:16.767Z,100.00
2022-12-31T22:53:45.124Z,100.00
2022-12-31T22:56:14.724Z,100.00
2022-12-31T22:58:44.724Z,100.00
2022-12-31T23:01:17.542Z,100.00
2022-12-31T23:03:45.667Z,100.00
2022-12-31T23:06:13.880Z,100.00
2022-12-31T23:08:41.665Z,100.00
2022-12-31T23:11:09.587Z,100.00
2022-12-31T23:13:57.348Z,100.00
2022-12-31T23:16:45.757Z,100.00
2022-12-31T23:19:32.123Z,100.00
2022-12-31T23:22:17.285Z,100.00
2022-12-31T23:24:45.172Z,100.00
2022-12-31T23:27:13.242Z,100.00
2022-12-31T23:29:47.100Z,100.00
2022-12-31T23:32:16.998Z,100.00
2022-12-31T23:34:45.673Z,100.00
2022-12-31T23:37:13.627Z,100.00
2022-12-31T23:39:41.732Z,100.00
2022-12-31T23:42:09.604Z,100.00
2022-12-31T23:44:37.341Z,100.00
2022-12-31T23:47:05.101Z,100.00
2022-12-31T23:49:34.269Z,100.00
2022-12-31T23:52:01.929Z,100.00
2022-12-31T23:54:29.694Z,100.00
2022-12-31T23:56:57.358Z,100.00
2022-12-31T23:59:25.094Z,100.00
